createdAt,value
2022-12-17T00:00:43.507Z,66.9
2022-12-17T00:01:56.483Z,69.1
2022-12-17T00:03:09.122Z,64.8
2022-12-17T00:04:21.265Z,66.4
2022-12-17T00:05:33.384Z,67.4
2022-12-17T00:06:45.715Z,72.9
2022-12-17T00:07:58.635Z,67.7
2022-12-17T00:09:11.094Z,67.9
2022-12-17T00:10:23.350Z,69.9
2022-12-17T00:11:35.434Z,70.4
2022-12-17T00:12:47.615Z,67.2
2022-12-17T00:13:59.911Z,67.7
2022-12-17T00:15:12.089Z,66.7
2022-12-17T00:16:24.488Z,65.7
2022-12-17T00:17:36.687Z,69.1
2022-12-17T00:18:49.167Z,68.9
2022-12-17T00:20:01.654Z,71.3
2022-12-17T00:21:14.158Z,68.9
2022-12-17T00:22:26.371Z,72
2022-12-17T00:23:38.972Z,73.3
2022-12-17T00:24:50.695Z,68.5
2022-12-17T00:26:03.006Z,77.6
2022-12-17T00:27:15.171Z,72.2
2022-12-17T00:28:27.487Z,75.9
2022-12-17T00:29:39.806Z,76.7
2022-12-17T00:30:51.830Z,76.4
2022-12-17T00:32:05.333Z,81.3
2022-12-17T00:33:17.334Z,80.5
2022-12-17T00:34:29.533Z,77.4
2022-12-17T00:35:41.722Z,74.1
2022-12-17T00:36:54.835Z,75
2022-12-17T00:38:08.735Z,79.1
2022-12-17T00:39:21.011Z,81
2022-12-17T00:40:33.171Z,76.7
2022-12-17T00:41:45.354Z,74.2
2022-12-17T00:43:00.578Z,72.2
2022-12-17T00:44:13.843Z,78.2
2022-12-17T00:45:26.075Z,74.7
2022-12-17T00:46:39.215Z,77.3
2022-12-17T00:47:46.437Z,80.3
2022-12-17T00:48:58.719Z,77.3
2022-12-17T00:50:10.851Z,77.9
2022-12-17T00:51:23.138Z,77.2
2022-12-17T00:52:35.362Z,76.6
2022-12-17T00:53:47.471Z,78.3
2022-12-17T00:54:59.930Z,76.9
2022-12-17T00:56:12.408Z,78.6
2022-12-17T00:57:24.872Z,80.4
2022-12-17T00:58:37.310Z,79.1
2022-12-17T00:59:49.523Z,76
2022-12-17T01:01:01.907Z,72.7
2022-12-17T01:02:14.030Z,75.8
2022-12-17T01:03:27.547Z,76.5
2022-12-17T01:04:39.882Z,78.3
2022-12-17T01:05:52.074Z,76.5
2022-12-17T01:07:04.544Z,76.8
2022-12-17T01:08:16.580Z,72.3
2022-12-17T01:09:28.999Z,71
2022-12-17T01:10:41.576Z,79
2022-12-17T01:11:56.356Z,78
2022-12-17T01:13:06.814Z,76.3
2022-12-17T01:14:19.054Z,74.8
2022-12-17T01:15:31.370Z,77.3
2022-12-17T01:16:43.522Z,77.3
2022-12-17T01:17:56.245Z,76
2022-12-17T01:19:07.949Z,74.7
2022-12-17T01:20:20.421Z,76.8
2022-12-17T01:21:32.858Z,76.7
2022-12-17T01:22:45.322Z,75.7
2022-12-17T01:23:57.742Z,75.8
2022-12-17T01:25:09.982Z,81
2022-12-17T01:26:22.258Z,78.3
2022-12-17T01:27:34.390Z,78.4
2022-12-17T01:28:47.454Z,79.5
2022-12-17T01:29:59.880Z,89.7
2022-12-17T01:31:12.968Z,90.6
2022-12-17T01:32:25.263Z,96.3
2022-12-17T01:33:37.985Z,89
2022-12-17T01:34:50.239Z,88.5
2022-12-17T01:36:02.422Z,88.6
2022-12-17T01:37:14.750Z,83.3
2022-12-17T01:38:26.907Z,79.6
2022-12-17T01:39:39.066Z,77.3
2022-12-17T01:40:51.238Z,81.8
2022-12-17T01:42:03.355Z,75.7
2022-12-17T01:43:15.634Z,76.1
2022-12-17T01:44:36.235Z,73.7
2022-12-17T01:45:51.479Z,78.2
2022-12-17T01:47:03.970Z,78.2
2022-12-17T01:48:16.155Z,74.8
2022-12-17T01:49:28.295Z,78.5
2022-12-17T01:50:40.473Z,77.1
2022-12-17T01:51:53.833Z,72.4
2022-12-17T01:53:06.306Z,76.3
2022-12-17T01:54:18.750Z,79
2022-12-17T01:55:30.857Z,79.3
2022-12-17T01:56:43.135Z,77.9
2022-12-17T01:57:56.398Z,73.9
2022-12-17T01:59:08.530Z,72
2022-12-17T02:00:20.791Z,74.7
2022-12-17T02:01:33.080Z,72.4
2022-12-17T02:02:45.323Z,76.9
2022-12-17T02:03:57.458Z,74.4
2022-12-17T02:05:09.662Z,70.9
2022-12-17T02:06:21.905Z,71.6
2022-12-17T02:07:34.096Z,73.7
2022-12-17T02:08:51.374Z,74.2
2022-12-17T02:10:08.734Z,73.3
2022-12-17T02:11:28.990Z,71.1
2022-12-17T02:12:48.863Z,75.6
2022-12-17T02:14:01.136Z,72.4
2022-12-17T02:15:21.628Z,72.3
2022-12-17T02:16:33.706Z,77.9
2022-12-17T02:17:45.911Z,75.2
2022-12-17T02:18:58.105Z,79
2022-12-17T02:20:20.514Z,81.3
2022-12-17T02:21:41.137Z,80
2022-12-17T02:22:53.578Z,77
2022-12-17T02:24:11.976Z,78.5
2022-12-17T02:25:30.094Z,80.8
2022-12-17T02:26:45.878Z,82.3
2022-12-17T02:27:58.309Z,81.7
2022-12-17T02:29:10.453Z,80.9
2022-12-17T02:30:22.703Z,78.5
2022-12-17T02:31:34.883Z,79.9
2022-12-17T02:32:47.063Z,77.7
2022-12-17T02:33:59.269Z,73.5
2022-12-17T02:35:12.048Z,80.3
2022-12-17T02:36:29.269Z,75.7
2022-12-17T02:37:41.557Z,79.1
2022-12-17T02:38:53.710Z,77.2
2022-12-17T02:40:05.979Z,76.9
2022-12-17T02:41:18.502Z,81.6
2022-12-17T02:42:30.794Z,75.7
2022-12-17T02:43:43.003Z,76.4
2022-12-17T02:44:55.275Z,73.9
2022-12-17T02:46:07.593Z,75.7
2022-12-17T02:47:19.782Z,72.9
2022-12-17T02:48:31.846Z,72.5
2022-12-17T02:49:44.018Z,77.3
2022-12-17T02:50:56.255Z,73.8
2022-12-17T02:52:08.493Z,78.3
2022-12-17T02:53:20.948Z,79.8
2022-12-17T02:54:34.157Z,84.1
2022-12-17T02:55:46.594Z,77.6
2022-12-17T02:56:58.975Z,78.1
2022-12-17T02:58:11.083Z,78.6
2022-12-17T02:59:23.394Z,78.6
2022-12-17T03:00:35.893Z,77.4
2022-12-17T03:01:48.479Z,74.7
2022-12-17T03:03:02.039Z,78
2022-12-17T03:04:14.281Z,78.7
2022-12-17T03:05:53.958Z,81.6
2022-12-17T03:06:39.249Z,79.3
2022-12-17T03:07:51.736Z,77.4
2022-12-17T03:09:04.071Z,79.3
2022-12-17T03:10:16.415Z,82.8
2022-12-17T03:11:28.813Z,85.1
2022-12-17T03:12:41.065Z,75.4
2022-12-17T03:13:54.251Z,77.1
2022-12-17T03:15:06.702Z,75.3
2022-12-17T03:16:18.858Z,75.7
2022-12-17T03:17:30.914Z,78.4
2022-12-17T03:18:43.134Z,79
2022-12-17T03:19:55.469Z,78
2022-12-17T03:21:08.221Z,75.3
2022-12-17T03:22:20.431Z,72.8
2022-12-17T03:23:32.610Z,78.2
2022-12-17T03:24:44.732Z,81.2
2022-12-17T03:25:56.968Z,79.2
2022-12-17T03:27:09.208Z,77.9
2022-12-17T03:28:21.609Z,77.4
2022-12-17T03:29:33.990Z,74.2
2022-12-17T03:30:49.016Z,76.8
2022-12-17T03:32:01.002Z,78.3
2022-12-17T03:33:13.589Z,81.2
2022-12-17T03:34:27.142Z,79.2
2022-12-17T03:35:39.167Z,77.9
2022-12-17T03:36:51.394Z,77.2
2022-12-17T03:38:03.946Z,76
2022-12-17T03:39:16.333Z,77.2
2022-12-17T03:40:28.544Z,80
2022-12-17T03:41:40.862Z,76.3
2022-12-17T03:42:52.988Z,72.4
2022-12-17T03:44:11.282Z,78.9
2022-12-17T03:45:23.417Z,75.9
2022-12-17T03:46:35.809Z,77.7
2022-12-17T03:47:48.102Z,73
2022-12-17T03:49:08.366Z,75.6
2022-12-17T03:50:20.702Z,74.3
2022-12-17T03:51:32.709Z,80.3
2022-12-17T03:52:44.933Z,81.5
2022-12-17T03:53:57.186Z,82.2
2022-12-17T03:55:09.596Z,87.7
2022-12-17T03:56:21.699Z,82
2022-12-17T03:57:33.885Z,87
2022-12-17T03:58:46.005Z,87.9
2022-12-17T03:59:58.233Z,88.1
2022-12-17T04:01:11.217Z,93.5
2022-12-17T04:02:23.388Z,91.6
2022-12-17T04:03:33.615Z,93.3
2022-12-17T04:04:45.433Z,93.7
2022-12-17T04:05:57.701Z,93
2022-12-17T04:07:09.921Z,95
2022-12-17T04:08:22.169Z,92.3
2022-12-17T04:09:34.673Z,90.7
2022-12-17T04:10:47.324Z,94.5
2022-12-17T04:11:59.714Z,96
2022-12-17T04:13:15.760Z,92.5
2022-12-17T04:14:28.577Z,92.3
2022-12-17T04:15:40.956Z,92.9
2022-12-17T04:16:53.146Z,97
2022-12-17T04:18:05.185Z,98.5
2022-12-17T04:19:17.714Z,98.5
2022-12-17T04:20:30.194Z,101.2
2022-12-17T04:21:42.406Z,96.3
2022-12-17T04:22:54.959Z,94.5
2022-12-17T04:24:07.390Z,96.5
2022-12-17T04:25:19.657Z,102
2022-12-17T04:26:31.782Z,96.6
2022-12-17T04:27:44.012Z,92.9
2022-12-17T04:28:56.260Z,101.5
2022-12-17T04:30:08.509Z,99.8
2022-12-17T04:31:20.889Z,103.4
2022-12-17T04:32:35.316Z,99
2022-12-17T04:33:46.565Z,99.6
2022-12-17T04:34:58.792Z,98.6
2022-12-17T04:36:11.085Z,93.4
2022-12-17T04:37:23.284Z,95.3
2022-12-17T04:38:35.757Z,95.5
2022-12-17T04:39:48.147Z,99.1
2022-12-17T04:41:00.381Z,96.4
2022-12-17T04:42:12.704Z,99.9
2022-12-17T04:43:24.940Z,97.2
2022-12-17T04:44:36.982Z,94.8
2022-12-17T04:45:49.173Z,99.5
2022-12-17T04:47:01.346Z,93.4
2022-12-17T04:48:13.658Z,96.5
2022-12-17T04:49:25.782Z,94.6
2022-12-17T04:50:38.049Z,97.8
2022-12-17T04:51:50.217Z,96.8
2022-12-17T04:53:02.499Z,94
2022-12-17T04:54:14.678Z,97.5
2022-12-17T04:55:26.774Z,99.1
2022-12-17T04:56:39.049Z,98.5
2022-12-17T04:57:51.237Z,94.9
2022-12-17T04:59:06.581Z,97
2022-12-17T05:00:19.073Z,95.3
2022-12-17T05:01:31.506Z,91.6
2022-12-17T05:02:43.866Z,98.5
2022-12-17T05:03:55.874Z,93.6
2022-12-17T05:05:08.125Z,96
2022-12-17T05:06:20.810Z,92.8
2022-12-17T05:07:33.181Z,91.8
2022-12-17T05:08:45.193Z,97.7
2022-12-17T05:09:57.397Z,96.8
2022-12-17T05:11:09.634Z,93.1
2022-12-17T05:12:21.875Z,94.1
2022-12-17T05:13:34.762Z,96.4
2022-12-17T05:14:46.703Z,91.7
2022-12-17T05:15:58.978Z,94.6
2022-12-17T05:17:11.065Z,98.3
2022-12-17T05:18:23.757Z,95.7
2022-12-17T05:19:36.000Z,100.8
2022-12-17T05:20:48.449Z,100.7
2022-12-17T05:22:00.458Z,96.8
2022-12-17T05:23:12.625Z,99.7
2022-12-17T05:24:25.588Z,97.9
2022-12-17T05:25:38.409Z,96.9
2022-12-17T05:26:50.734Z,97
2022-12-17T05:28:03.437Z,101.8
2022-12-17T05:29:16.227Z,99.9
2022-12-17T05:30:27.874Z,95.9
2022-12-17T05:31:43.191Z,100.6
2022-12-17T05:32:55.418Z,94.9
2022-12-17T05:34:07.597Z,99
2022-12-17T05:35:21.020Z,103
2022-12-17T05:36:33.469Z,100.8
2022-12-17T05:37:45.952Z,98.3
2022-12-17T05:38:57.978Z,100.3
2022-12-17T05:40:12.643Z,99.4
2022-12-17T05:41:22.309Z,91.3
2022-12-17T05:42:34.440Z,93.7
2022-12-17T05:43:46.701Z,94.4
2022-12-17T05:44:58.950Z,91.7
2022-12-17T05:46:11.423Z,96.5
2022-12-17T05:47:23.373Z,94.4
2022-12-17T05:48:35.548Z,95.2
2022-12-17T05:49:47.722Z,96.5
2022-12-17T05:50:59.961Z,96
2022-12-17T05:52:13.279Z,93.1
2022-12-17T05:53:25.440Z,96.9
2022-12-17T05:54:37.601Z,96.7
2022-12-17T05:55:49.825Z,94
2022-12-17T05:57:02.066Z,97
2022-12-17T05:58:14.444Z,97.5
2022-12-17T05:59:26.934Z,97.6
2022-12-17T06:00:39.092Z,99.6
2022-12-17T06:01:51.504Z,98.4
2022-12-17T06:03:03.612Z,99.3
2022-12-17T06:04:16.812Z,99.6
2022-12-17T06:05:28.966Z,102.8
2022-12-17T06:06:41.124Z,97
2022-12-17T06:07:53.356Z,95.9
2022-12-17T06:09:08.335Z,97.5
2022-12-17T06:10:20.512Z,97
2022-12-17T06:11:32.530Z,99.5
2022-12-17T06:12:44.748Z,101.6
2022-12-17T06:13:59.784Z,101.9
2022-12-17T06:15:11.936Z,99.5
2022-12-17T06:16:24.087Z,94
2022-12-17T06:17:36.175Z,95.6
2022-12-17T06:18:56.520Z,97.1
2022-12-17T06:20:08.745Z,95.6
2022-12-17T06:21:20.905Z,98.9
2022-12-17T06:22:33.149Z,98.6
2022-12-17T06:23:45.389Z,94.1
2022-12-17T06:24:57.887Z,91.7
2022-12-17T06:26:10.524Z,95.8
2022-12-17T06:27:22.597Z,96
2022-12-17T06:28:36.029Z,96.3
2022-12-17T06:29:48.501Z,90.9
2022-12-17T06:31:00.761Z,93.3
2022-12-17T06:32:12.857Z,97
2022-12-17T06:33:25.202Z,98.2
2022-12-17T06:34:37.231Z,98
2022-12-17T06:35:49.826Z,98.5
2022-12-17T06:37:02.187Z,94
2022-12-17T06:38:14.501Z,96.7
2022-12-17T06:39:26.792Z,97.1
2022-12-17T06:40:38.825Z,95.8
2022-12-17T06:41:51.051Z,96.9
2022-12-17T06:43:03.272Z,100.6
2022-12-17T06:44:15.436Z,104.5
2022-12-17T06:45:25.771Z,104.5
2022-12-17T06:46:39.500Z,96.7
2022-12-17T06:47:51.760Z,103.2
2022-12-17T06:49:03.964Z,96.3
2022-12-17T06:50:16.049Z,101.1
2022-12-17T06:51:28.191Z,107.1
2022-12-17T06:52:40.374Z,101.4
2022-12-17T06:53:52.588Z,99.7
2022-12-17T06:55:05.604Z,101.8
2022-12-17T06:56:18.080Z,99.7
2022-12-17T06:57:30.214Z,100.7
2022-12-17T06:58:42.438Z,102.3
2022-12-17T06:59:54.734Z,104.8
2022-12-17T07:01:07.007Z,101.2
2022-12-17T07:02:19.634Z,102.6
2022-12-17T07:03:31.763Z,103
2022-12-17T07:04:44.248Z,102.3
2022-12-17T07:05:56.689Z,107
2022-12-17T07:07:08.912Z,101.2
2022-12-17T07:08:21.120Z,105.8
2022-12-17T07:09:33.248Z,108.4
2022-12-17T07:10:45.501Z,99.3
2022-12-17T07:11:57.802Z,96.6
2022-12-17T07:13:10.236Z,101.1
2022-12-17T07:14:22.737Z,101.8
2022-12-17T07:15:34.904Z,100.4
2022-12-17T07:16:47.824Z,103.3
2022-12-17T07:18:00.413Z,103.8
2022-12-17T07:19:12.791Z,104.8
2022-12-17T07:20:24.884Z,103.4
2022-12-17T07:21:37.000Z,102.5
2022-12-17T07:22:49.204Z,102.5
2022-12-17T07:24:01.383Z,106.3
2022-12-17T07:25:13.724Z,104.4
2022-12-17T07:26:25.842Z,102
2022-12-17T07:27:38.972Z,99.8
2022-12-17T07:28:56.384Z,99.9
2022-12-17T07:30:08.909Z,101.5
2022-12-17T07:31:21.395Z,103.7
2022-12-17T07:32:33.441Z,104.8
2022-12-17T07:33:45.845Z,103.9
2022-12-17T07:34:58.017Z,106
2022-12-17T07:36:10.247Z,104.3
2022-12-17T07:37:23.328Z,102.4
2022-12-17T07:38:35.720Z,108.8
2022-12-17T07:39:47.996Z,108
2022-12-17T07:41:00.156Z,122.1
2022-12-17T07:42:12.241Z,122.8
2022-12-17T07:43:24.631Z,129
2022-12-17T07:44:37.197Z,167.9
2022-12-17T07:45:49.497Z,315
2022-12-17T07:47:01.633Z,148.8
2022-12-17T07:48:13.900Z,316
2022-12-17T07:49:26.448Z,383.3
2022-12-17T07:50:38.745Z,287.1
2022-12-17T07:51:54.058Z,158.7
2022-12-17T07:53:06.157Z,188.9
2022-12-17T07:54:18.484Z,151.1
2022-12-17T07:55:30.817Z,135.1
2022-12-17T07:56:43.092Z,136.1
2022-12-17T07:57:55.564Z,148.9
2022-12-17T07:59:08.685Z,126.7
2022-12-17T08:00:21.038Z,130.5
2022-12-17T08:01:33.373Z,148
2022-12-17T08:02:45.776Z,127.6
2022-12-17T08:04:00.236Z,134.7
2022-12-17T08:05:12.227Z,149.9
2022-12-17T08:06:24.707Z,121.4
2022-12-17T08:07:38.685Z,135.8
2022-12-17T08:08:51.916Z,116.5
2022-12-17T08:10:04.388Z,129.3
2022-12-17T08:11:16.623Z,119.5
2022-12-17T08:12:28.840Z,115.7
2022-12-17T08:13:40.944Z,118.6
2022-12-17T08:14:53.244Z,114.8
2022-12-17T08:16:05.604Z,123.2
2022-12-17T08:17:18.282Z,122.4
2022-12-17T08:18:30.392Z,116.8
2022-12-17T08:19:42.639Z,117
2022-12-17T08:20:54.847Z,118
2022-12-17T08:22:07.042Z,112.8
2022-12-17T08:23:19.350Z,114
2022-12-17T08:24:31.983Z,115.2
2022-12-17T08:25:45.373Z,110.8
2022-12-17T08:26:57.707Z,114.4
2022-12-17T08:28:11.283Z,114.5
2022-12-17T08:29:22.519Z,115.9
2022-12-17T08:30:35.053Z,115.1
2022-12-17T08:31:47.296Z,114.3
2022-12-17T08:32:59.468Z,127.2
2022-12-17T08:34:12.663Z,122.1
2022-12-17T08:35:25.137Z,116.3
2022-12-17T08:36:37.588Z,117.9
2022-12-17T08:37:49.777Z,125.3
2022-12-17T08:39:07.354Z,128.2
2022-12-17T08:40:19.671Z,155.4
2022-12-17T08:41:32.053Z,122.8
2022-12-17T08:42:44.271Z,125.4
2022-12-17T08:43:59.271Z,124.8
2022-12-17T08:45:12.215Z,128.5
2022-12-17T08:46:24.557Z,130.9
2022-12-17T08:47:37.057Z,120.6
2022-12-17T08:48:49.479Z,113.9
2022-12-17T08:50:01.797Z,117
2022-12-17T08:51:13.871Z,115.4
2022-12-17T08:52:26.166Z,115.6
2022-12-17T08:53:39.467Z,125.1
2022-12-17T08:54:51.737Z,126.2
2022-12-17T08:56:03.936Z,115.3
2022-12-17T08:57:26.960Z,113.5
2022-12-17T08:58:28.139Z,117.2
2022-12-17T08:59:40.464Z,113.9
2022-12-17T09:00:52.648Z,117.3
2022-12-17T09:02:05.202Z,139.7
2022-12-17T09:03:17.116Z,147.9
2022-12-17T09:04:29.191Z,136.2
2022-12-17T09:05:41.497Z,121.5
2022-12-17T09:06:53.723Z,118.1
2022-12-17T09:08:06.171Z,121.5
2022-12-17T09:09:18.235Z,111.4
2022-12-17T09:10:30.315Z,112.8
2022-12-17T09:11:42.576Z,108.8
2022-12-17T09:12:57.520Z,109.4
2022-12-17T09:14:07.683Z,119.5
2022-12-17T09:15:19.726Z,119.5
2022-12-17T09:16:32.001Z,121.5
2022-12-17T09:17:44.399Z,121.3
2022-12-17T09:18:56.779Z,115.5
2022-12-17T09:20:09.203Z,120
2022-12-17T09:21:21.372Z,116.2
2022-12-17T09:22:33.402Z,111.9
2022-12-17T09:23:46.227Z,114.4
2022-12-17T09:24:58.360Z,115.8
2022-12-17T09:26:11.115Z,117.9
2022-12-17T09:27:23.772Z,120.6
2022-12-17T09:28:35.992Z,133.3
2022-12-17T09:29:48.275Z,123.7
2022-12-17T09:31:00.622Z,114.6
2022-12-17T09:32:10.699Z,112.2
2022-12-17T09:33:23.091Z,115.3
2022-12-17T09:34:37.604Z,112.4
2022-12-17T09:35:49.853Z,115.8
2022-12-17T09:37:02.071Z,124.8
2022-12-17T09:38:14.752Z,123.3
2022-12-17T09:39:27.555Z,125.1
2022-12-17T09:40:39.839Z,134.9
2022-12-17T09:41:52.046Z,128.9
2022-12-17T09:43:14.395Z,143.4
2022-12-17T09:44:29.747Z,139.2
2022-12-17T09:45:41.857Z,134.9
2022-12-17T09:46:54.115Z,128.2
2022-12-17T09:48:09.423Z,137
2022-12-17T09:49:29.655Z,134.1
2022-12-17T09:50:42.039Z,129.5
2022-12-17T09:51:54.379Z,129
2022-12-17T09:53:07.135Z,129.9
2022-12-17T09:54:22.155Z,146.8
2022-12-17T09:55:41.222Z,156.1
2022-12-17T09:56:54.471Z,152.7
2022-12-17T09:58:06.947Z,141
2022-12-17T09:59:24.264Z,139.7
2022-12-17T10:00:37.259Z,136.3
2022-12-17T10:01:49.808Z,134.1
2022-12-17T10:03:02.058Z,134.1
2022-12-17T10:04:19.163Z,137.1
2022-12-17T10:05:41.951Z,131.5
2022-12-17T10:06:54.171Z,134.2
2022-12-17T10:08:06.395Z,127.1
2022-12-17T10:09:18.727Z,135.2
2022-12-17T10:10:30.767Z,123.2
2022-12-17T10:11:45.531Z,130.6
2022-12-17T10:12:58.733Z,134.1
2022-12-17T10:14:11.186Z,144.5
2022-12-17T10:15:23.473Z,170.3
2022-12-17T10:16:35.879Z,124.6
2022-12-17T10:17:48.245Z,149.3
2022-12-17T10:19:00.746Z,151.4
2022-12-17T10:20:18.349Z,128.6
2022-12-17T10:21:36.051Z,140.5
2022-12-17T10:22:48.315Z,165.6
2022-12-17T10:24:00.578Z,182.9
2022-12-17T10:25:12.883Z,158.3
2022-12-17T10:26:25.248Z,155
2022-12-17T10:27:37.747Z,136.5
2022-12-17T10:28:49.954Z,144.7
2022-12-17T10:30:07.246Z,148.4
2022-12-17T10:31:19.651Z,150.1
2022-12-17T10:32:32.051Z,129.6
2022-12-17T10:33:44.263Z,179.7
2022-12-17T10:34:59.348Z,167.4
2022-12-17T10:36:11.423Z,152.3
2022-12-17T10:37:23.670Z,142.4
2022-12-17T10:38:35.670Z,136.8
2022-12-17T10:39:47.875Z,121.8
2022-12-17T10:41:00.182Z,124.8
2022-12-17T10:42:22.791Z,124.4
2022-12-17T10:43:35.912Z,132.8
2022-12-17T10:44:48.000Z,137.3
2022-12-17T10:46:00.311Z,142
2022-12-17T10:47:12.535Z,135.8
2022-12-17T10:48:27.942Z,146.3
2022-12-17T10:49:40.249Z,129.2
2022-12-17T10:51:00.359Z,132.9
2022-12-17T10:52:22.903Z,129.1
2022-12-17T10:53:35.466Z,135.4
2022-12-17T10:54:49.553Z,136.6
2022-12-17T10:55:59.702Z,121.4
2022-12-17T10:57:11.977Z,127.1
2022-12-17T10:58:30.211Z,117.9
2022-12-17T10:59:47.531Z,123.3
2022-12-17T11:00:59.812Z,129.6
2022-12-17T11:02:15.223Z,185.9
2022-12-17T11:03:30.334Z,166.9
2022-12-17T11:04:42.402Z,213.1
2022-12-17T11:05:59.342Z,158.2
2022-12-17T11:07:06.886Z,144.9
2022-12-17T11:08:24.486Z,129.6
2022-12-17T11:09:36.738Z,147.9
2022-12-17T11:10:49.003Z,146.9
2022-12-17T11:12:05.720Z,144.8
2022-12-17T11:13:13.552Z,124.7
2022-12-17T11:14:33.722Z,124
2022-12-17T11:15:46.127Z,126.4
2022-12-17T11:16:58.272Z,122.6
2022-12-17T11:18:11.726Z,118.6
2022-12-17T11:19:27.846Z,117.9
2022-12-17T11:20:45.455Z,114.5
2022-12-17T11:22:00.222Z,115.9
2022-12-17T11:23:20.250Z,126.6
2022-12-17T11:24:32.226Z,122.6
2022-12-17T11:25:47.158Z,121.7
2022-12-17T11:26:59.366Z,119.8
2022-12-17T11:28:11.591Z,123.3
2022-12-17T11:29:26.994Z,129.4
2022-12-17T11:30:39.434Z,130.6
2022-12-17T11:31:57.363Z,123.1
2022-12-17T11:33:14.761Z,126.3
2022-12-17T11:34:32.330Z,125.2
2022-12-17T11:35:53.135Z,124.8
2022-12-17T11:37:05.635Z,133.9
2022-12-17T11:38:21.090Z,138.7
2022-12-17T11:39:41.714Z,140.8
2022-12-17T11:40:59.006Z,225
2022-12-17T11:42:11.729Z,489.3
2022-12-17T11:43:28.846Z,319.9
2022-12-17T11:44:49.450Z,156.1
2022-12-17T11:46:07.838Z,485.4
2022-12-17T11:47:30.420Z,397.3
2022-12-17T11:48:47.849Z,312.6
2022-12-17T11:50:05.217Z,386.8
2022-12-17T11:51:22.578Z,560.5
2022-12-17T11:52:40.210Z,371.3
2022-12-17T11:53:54.983Z,291.5
2022-12-17T11:55:17.535Z,269.8
2022-12-17T11:56:35.134Z,189.7
2022-12-17T11:57:52.505Z,205.2
2022-12-17T11:59:04.838Z,173.2
2022-12-17T12:00:25.251Z,150.5
2022-12-17T12:01:39.825Z,139.6
2022-12-17T12:02:55.279Z,142.1
2022-12-17T12:04:11.426Z,147.9
2022-12-17T12:05:28.554Z,152.8
2022-12-17T12:06:45.914Z,139.8
2022-12-17T12:08:05.862Z,181.9
2022-12-17T12:09:26.266Z,164.5
2022-12-17T12:10:46.533Z,174.3
2022-12-17T12:12:01.878Z,156.3
2022-12-17T12:13:24.302Z,161.1
2022-12-17T12:14:47.055Z,164.7
2022-12-17T12:16:07.523Z,172.1
2022-12-17T12:17:22.786Z,178
2022-12-17T12:18:45.438Z,185.7
2022-12-17T12:20:03.687Z,164.3
2022-12-17T12:21:20.818Z,157.3
2022-12-17T12:22:40.936Z,159.4
2022-12-17T12:23:58.492Z,155.8
2022-12-17T12:25:10.624Z,182.4
2022-12-17T12:26:30.710Z,163.5
2022-12-17T12:27:48.172Z,164.9
2022-12-17T12:29:05.775Z,166.9
2022-12-17T12:30:20.862Z,176.1
2022-12-17T12:31:32.908Z,177.2
2022-12-17T12:32:55.274Z,169.3
2022-12-17T12:34:12.689Z,163.4
2022-12-17T12:35:24.923Z,160.7
2022-12-17T12:36:36.922Z,163
2022-12-17T12:37:49.107Z,170.7
2022-12-17T12:39:01.497Z,160.1
2022-12-17T12:40:13.698Z,154.8
2022-12-17T12:41:31.417Z,167.9
2022-12-17T12:42:53.821Z,159.1
2022-12-17T12:44:09.250Z,157.2
2022-12-17T12:45:31.975Z,168.3
2022-12-17T12:46:54.379Z,166.1
2022-12-17T12:48:06.666Z,160.5
2022-12-17T12:49:29.347Z,155.8
2022-12-17T12:50:42.561Z,155.4
2022-12-17T12:51:57.514Z,154.5
2022-12-17T12:53:09.685Z,155.5
2022-12-17T12:54:22.063Z,160.5
2022-12-17T12:55:34.724Z,154.7
2022-12-17T12:56:46.742Z,154.4
2022-12-17T12:57:59.029Z,150.1
2022-12-17T12:59:21.542Z,145.3
2022-12-17T13:00:34.052Z,139.6
2022-12-17T13:01:52.792Z,141.3
2022-12-17T13:03:04.840Z,143.3
2022-12-17T13:04:16.893Z,132.1
2022-12-17T13:05:31.770Z,137.7
2022-12-17T13:06:38.685Z,142.2
2022-12-17T13:07:53.502Z,135.3
2022-12-17T13:09:08.746Z,138.4
2022-12-17T13:10:19.019Z,136.5
2022-12-17T13:11:26.190Z,132.3
2022-12-17T13:12:33.194Z,136.4
2022-12-17T13:13:43.274Z,132.3
2022-12-17T13:14:50.550Z,129.5
2022-12-17T13:16:05.922Z,126.2
2022-12-17T13:17:23.154Z,126
2022-12-17T13:18:35.712Z,127.7
2022-12-17T13:19:44.858Z,126.9
2022-12-17T13:20:59.714Z,125.1
2022-12-17T13:22:23.566Z,125.8
2022-12-17T13:23:24.195Z,128.3
2022-12-17T13:24:36.895Z,124.4
2022-12-17T13:25:46.533Z,131.1
2022-12-17T13:26:53.746Z,123.2
2022-12-17T13:28:00.783Z,125.7
2022-12-17T13:29:08.019Z,120.7
2022-12-17T13:30:26.263Z,120.2
2022-12-17T13:31:37.100Z,121.2
2022-12-17T13:32:44.182Z,115.3
2022-12-17T13:34:01.326Z,120.9
2022-12-17T13:35:11.142Z,115.5
2022-12-17T13:36:28.505Z,117.9
2022-12-17T13:37:46.145Z,120.3
2022-12-17T13:39:00.951Z,121.4
2022-12-17T13:40:13.241Z,120.3
2022-12-17T13:41:28.512Z,115.7
2022-12-17T13:42:35.376Z,110.9
2022-12-17T13:43:42.594Z,111.8
2022-12-17T13:44:57.414Z,115.3
2022-12-17T13:46:04.576Z,120.9
2022-12-17T13:47:11.954Z,121.3
2022-12-17T13:48:21.510Z,134.3
2022-12-17T13:49:28.698Z,230
2022-12-17T13:50:36.906Z,134.6
2022-12-17T13:51:43.233Z,175.9
2022-12-17T13:52:50.358Z,226.5
2022-12-17T13:53:57.814Z,171.9
2022-12-17T13:55:04.617Z,143
2022-12-17T13:56:11.830Z,138.8
2022-12-17T13:57:18.990Z,121.2
2022-12-17T13:58:26.112Z,140.1
2022-12-17T13:59:33.047Z,155.8
2022-12-17T14:00:40.142Z,118.8
2022-12-17T14:01:47.503Z,137.8
2022-12-17T14:02:54.723Z,137.3
2022-12-17T14:04:06.579Z,121.5
2022-12-17T14:05:08.925Z,119
2022-12-17T14:06:24.189Z,109.2
2022-12-17T14:07:31.107Z,115.3
2022-12-17T14:08:38.743Z,114.2
2022-12-17T14:09:45.402Z,111
2022-12-17T14:10:52.641Z,109.7
2022-12-17T14:12:04.846Z,108.8
2022-12-17T14:13:17.211Z,108.4
2022-12-17T14:14:24.285Z,107.5
2022-12-17T14:15:36.854Z,113.1
2022-12-17T14:16:49.096Z,103
2022-12-17T14:17:51.061Z,104.6
2022-12-17T14:18:58.229Z,114.2
2022-12-17T14:20:05.468Z,102.2
2022-12-17T14:21:15.098Z,108.4
2022-12-17T14:22:22.414Z,105
2022-12-17T14:23:37.818Z,104.3
2022-12-17T14:24:45.034Z,105.4
2022-12-17T14:25:52.325Z,105.4
2022-12-17T14:26:59.292Z,99.5
2022-12-17T14:28:06.517Z,105.8
2022-12-17T14:29:23.913Z,115.7
2022-12-17T14:30:30.811Z,109.8
2022-12-17T14:31:40.735Z,117.2
2022-12-17T14:32:47.606Z,123
2022-12-17T14:33:54.787Z,121.7
2022-12-17T14:35:04.578Z,121.4
2022-12-17T14:36:11.719Z,126.7
2022-12-17T14:37:18.951Z,113.8
2022-12-17T14:38:37.803Z,110.6
2022-12-17T14:39:33.613Z,115.1
2022-12-17T14:40:40.582Z,120.1
2022-12-17T14:41:47.773Z,110.9
2022-12-17T14:43:00.018Z,112.7
2022-12-17T14:44:07.238Z,107.6
2022-12-17T14:45:24.710Z,99.1
2022-12-17T14:46:32.071Z,97.3
2022-12-17T14:47:39.243Z,100.9
2022-12-17T14:48:56.447Z,99.9
2022-12-17T14:50:06.329Z,100.7
2022-12-17T14:51:13.490Z,102.1
2022-12-17T14:52:31.082Z,101.9
2022-12-17T14:53:43.389Z,103.9
2022-12-17T14:54:50.704Z,133.7
2022-12-17T14:55:57.672Z,270.8
2022-12-17T14:57:04.765Z,139.2
2022-12-17T14:58:12.901Z,164.1
2022-12-17T14:59:20.185Z,182.8
2022-12-17T15:00:30.731Z,318.7
2022-12-17T15:01:37.849Z,264.1
2022-12-17T15:02:45.226Z,355.7
2022-12-17T15:03:55.629Z,241.7
2022-12-17T15:05:02.445Z,458
2022-12-17T15:06:09.498Z,440.9
2022-12-17T15:07:18.138Z,272.4
2022-12-17T15:08:27.389Z,305.9
2022-12-17T15:09:37.421Z,300.1
2022-12-17T15:10:44.465Z,300.8
2022-12-17T15:11:52.711Z,242.9
2022-12-17T15:12:59.927Z,200.5
2022-12-17T15:14:08.061Z,163.1
2022-12-17T15:15:15.379Z,130.3
2022-12-17T15:16:22.458Z,129.1
2022-12-17T15:17:29.625Z,132.2
2022-12-17T15:18:36.704Z,121.1
2022-12-17T15:19:43.693Z,120.6
2022-12-17T15:20:50.985Z,130.6
2022-12-17T15:21:57.944Z,119.7
2022-12-17T15:23:05.131Z,120.9
2022-12-17T15:24:18.313Z,120
2022-12-17T15:25:26.095Z,115.2
2022-12-17T15:26:33.007Z,120.8
2022-12-17T15:27:40.157Z,119.8
2022-12-17T15:28:47.613Z,117.2
2022-12-17T15:29:54.546Z,119.4
2022-12-17T15:31:01.899Z,119.8
2022-12-17T15:32:09.657Z,124.2
2022-12-17T15:33:22.187Z,116.7
2022-12-17T15:34:30.142Z,125.6
2022-12-17T15:35:37.100Z,124
2022-12-17T15:36:44.354Z,121.8
2022-12-17T15:37:51.498Z,123.4
2022-12-17T15:38:58.696Z,125.1
2022-12-17T15:40:05.913Z,131.1
2022-12-17T15:41:13.056Z,129.7
2022-12-17T15:42:25.302Z,129.2
2022-12-17T15:43:37.689Z,128.1
2022-12-17T15:44:44.918Z,125.7
2022-12-17T15:45:52.237Z,124
2022-12-17T15:46:59.175Z,127.8
2022-12-17T15:48:06.360Z,123.9
2022-12-17T15:49:17.510Z,122.9
2022-12-17T15:50:26.854Z,127.7
2022-12-17T15:51:34.114Z,133.7
2022-12-17T15:52:41.258Z,131.6
2022-12-17T15:53:48.479Z,126.4